Time;durP1;ratioP1;P1;durP2;ratioP2;P2;SDS_P1;SDS_P2;PMS_P1;PMS_P2;Temp;Humidity;BMP_temperature;BMP_pressure;BME280_temperature;BME280_humidity;BME280_pressure;Samples;Min_cycle;Max_cycle;Signal;HPM_P1;HPM_P2
2022/08/10 00:01:21;;;;;;;1999.90;999.90;;;13.40;99.90;;;;;;5121887;27;20031;-74
2022/08/10 00:03:46;;;;;;;1999.90;999.90;;;13.40;99.90;;;;;;5127501;27;20054;-74
2022/08/10 00:06:12;;;;;;;1999.90;999.90;;;13.40;99.90;;;;;;5084034;27;20046;-74
2022/08/10 00:08:38;;;;;;;1999.90;999.90;;;13.40;99.90;;;;;;5112463;27;20669;-74
2022/08/10 00:11:04;;;;;;;1999.90;999.90;;;13.30;99.90;;;;;;5099836;27;20122;-74
2022/08/10 00:13:29;;;;;;;1999.90;999.90;;;13.30;99.90;;;;;;5095830;27;20513;-74
2022/08/10 00:15:55;;;;;;;1999.90;999.90;;;13.20;99.90;;;;;;5113041;27;20407;-74
2022/08/10 00:18:25;;;;;;;1999.90;999.90;;;13.10;99.90;;;;;;5095879;27;20047;-74
2022/08/10 00:20:51;;;;;;;1999.90;999.90;;;13.10;99.90;;;;;;5109558;27;20392;-74
2022/08/10 00:23:16;;;;;;;1999.90;999.90;;;13.10;99.90;;;;;;5130351;27;20049;-74
2022/08/10 00:25:42;;;;;;;1999.90;999.90;;;13.00;99.90;;;;;;5108874;27;20450;-74
2022/08/10 00:28:08;;;;;;;1999.90;999.90;;;13.00;99.90;;;;;;5094532;27;20134;-73
2022/08/10 00:30:33;;;;;;;1999.90;999.90;;;13.10;99.90;;;;;;5130308;27;20039;-74
2022/08/10 00:32:59;;;;;;;1999.90;999.90;;;13.20;99.90;;;;;;5108812;27;20118;-74
2022/08/10 00:35:25;;;;;;;1999.90;999.90;;;13.20;99.90;;;;;;5131210;27;20121;-74
2022/08/10 00:37:50;;;;;;;1999.90;999.90;;;13.20;99.90;;;;;;5102705;27;20172;-74
2022/08/10 00:40:16;;;;;;;1999.90;999.90;;;13.30;99.90;;;;;;5104694;27;20062;-74
2022/08/10 00:42:42;;;;;;;1999.90;999.90;;;13.20;99.90;;;;;;5129943;27;20047;-74
2022/08/10 00:45:08;;;;;;;1999.90;999.90;;;13.20;99.90;;;;;;5129979;27;20046;-73
2022/08/10 00:47:33;;;;;;;1999.90;999.90;;;13.20;99.90;;;;;;5130395;27;20390;-74
2022/08/10 00:49:59;;;;;;;1999.90;999.90;;;13.10;99.90;;;;;;5128168;27;20035;-74
2022/08/10 00:52:26;;;;;;;1999.90;999.90;;;13.00;99.90;;;;;;5130304;27;20038;-74
2022/08/10 00:54:52;;;;;;;1999.90;999.90;;;13.00;99.90;;;;;;5127642;27;20371;-73
2022/08/10 00:57:19;;;;;;;1999.90;999.90;;;13.00;99.90;;;;;;5130552;27;20080;-74
2022/08/10 00:59:46;;;;;;;1999.90;999.90;;;12.90;99.90;;;;;;5108508;27;20122;-73
2022/08/10 01:02:11;;;;;;;1999.90;999.90;;;12.90;99.90;;;;;;5128066;27;20031;-73
2022/08/10 01:04:37;;;;;;;1999.90;999.90;;;12.90;99.90;;;;;;5125944;27;20543;-73
2022/08/10 01:07:22;;;;;;;1999.90;999.90;;;12.90;99.90;;;;;;5119870;27;20050;-73
2022/08/10 01:10:15;;;;;;;1999.90;999.90;;;12.90;99.90;;;;;;5124886;27;20137;-73
2022/08/10 01:12:57;;;;;;;1999.90;999.90;;;12.80;99.90;;;;;;5110392;27;20043;-73
2022/08/10 01:15:33;;;;;;;1999.90;999.90;;;12.80;99.90;;;;;;5131213;27;20517;-73
2022/08/10 01:18:08;;;;;;;1999.90;999.90;;;12.80;99.90;;;;;;5128306;27;20046;-74
2022/08/10 01:20:57;;;;;;;1999.90;999.90;;;12.80;99.90;;;;;;5128048;27;20042;-74
2022/08/10 01:24:03;;;;;;;1999.90;999.90;;;12.80;99.90;;;;;;5129752;27;20063;-74
2022/08/10 01:26:47;;;;;;;1999.90;999.90;;;12.80;99.90;;;;;;5129992;27;20407;-74
2022/08/10 01:29:34;;;;;;;1999.90;999.90;;;12.70;99.90;;;;;;5125384;27;20035;-74
2022/08/10 01:32:03;;;;;;;1999.90;999.90;;;12.70;99.90;;;;;;5111254;27;20051;-74
2022/08/10 01:34:37;;;;;;;1999.90;999.90;;;12.70;99.90;;;;;;5131581;27;20100;-74
2022/08/10 01:37:10;;;;;;;1999.90;999.90;;;12.70;99.90;;;;;;5109419;27;20047;-74
2022/08/10 01:39:37;;;;;;;;;;;12.70;99.90;;;;;;5128773;27;20055;-73
2022/08/10 01:42:04;;;;;;;1999.90;999.90;;;12.70;99.90;;;;;;5128510;27;19923;-74
2022/08/10 01:44:39;;;;;;;1999.90;999.90;;;12.70;99.90;;;;;;5127815;27;20047;-74
2022/08/10 01:50:03;;;;;;;1999.90;999.90;;;12.70;99.90;;;;;;5127443;27;20405;-74
2022/08/10 01:52:30;;;;;;;1999.90;999.90;;;12.70;99.90;;;;;;5128996;27;20053;-74
2022/08/10 01:54:57;;;;;;;1999.90;999.90;;;12.60;99.90;;;;;;5107415;27;20066;-74
2022/08/10 01:57:27;;;;;;;1999.90;999.90;;;12.60;99.90;;;;;;5128062;27;20131;-74
2022/08/10 01:59:56;;;;;;;1999.90;999.90;;;12.60;99.90;;;;;;5125506;27;20039;-74
2022/08/10 02:02:24;;;;;;;1999.90;999.90;;;12.60;99.90;;;;;;5122896;27;20164;-74
2022/08/10 02:04:51;;;;;;;1999.90;999.90;;;12.60;99.90;;;;;;5128989;27;20039;-74
2022/08/10 02:07:19;;;;;;;1999.90;999.90;;;12.60;99.90;;;;;;5089138;28;20126;-74
2022/08/10 02:09:49;;;;;;;1999.90;999.90;;;12.60;99.90;;;;;;5103651;28;20483;-74
2022/08/10 02:12:20;;;;;;;1999.90;999.90;;;12.50;99.90;;;;;;5127538;28;20390;-73
2022/08/10 02:14:49;;;;;;;1999.90;999.90;;;12.50;99.90;;;;;;5102304;28;20039;-74
2022/08/10 02:17:18;;;;;;;1999.90;999.90;;;12.60;99.90;;;;;;5141390;27;20538;-74
2022/08/10 02:19:45;;;;;;;1999.90;999.90;;;12.50;99.90;;;;;;5129149;28;20106;-74
2022/08/10 02:22:15;;;;;;;1999.90;999.90;;;12.60;99.90;;;;;;5134898;27;20115;-74
2022/08/10 02:24:44;;;;;;;1999.90;999.90;;;12.60;99.90;;;;;;5110965;28;20110;-74
2022/08/10 02:27:12;;;;;;;1999.90;999.90;;;12.60;99.90;;;;;;5110157;28;20035;-74
2022/08/10 02:29:40;;;;;;;1999.90;999.90;;;12.70;99.90;;;;;;5129322;28;20372;-74
2022/08/10 02:32:08;;;;;;;1999.90;999.90;;;12.70;99.90;;;;;;5108367;28;20043;-74
2022/08/10 02:34:36;;;;;;;1999.90;999.90;;;12.80;99.90;;;;;;5128528;28;20502;-74
2022/08/10 02:37:03;;;;;;;1999.90;999.90;;;12.80;99.90;;;;;;5109490;28;20409;-74
2022/08/10 02:39:30;;;;;;;1999.90;999.90;;;12.90;99.90;;;;;;5127822;28;20051;-73
2022/08/10 02:42:04;;;;;;;1999.90;999.90;;;12.90;99.90;;;;;;5110659;28;20035;-74
2022/08/10 02:44:53;;;;;;;1999.90;999.90;;;12.90;99.90;;;;;;5119789;28;20591;-73
2022/08/10 02:47:30;;;;;;;1999.90;999.90;;;12.90;99.90;;;;;;5128898;28;20431;-73
2022/08/10 02:50:18;;;;;;;1999.90;999.90;;;12.90;99.90;;;;;;5125719;28;20035;-74
2022/08/10 02:53:06;;;;;;;1999.90;999.90;;;12.90;99.90;;;;;;5131674;27;20050;-73
2022/08/10 02:56:00;;;;;;;1999.90;999.90;;;12.90;99.90;;;;;;5119249;27;20055;-74
2022/08/10 02:58:52;;;;;;;1999.90;999.90;;;12.90;99.90;;;;;;5118396;27;20054;-73
2022/08/10 03:01:21;;;;;;;1999.90;999.90;;;12.90;99.90;;;;;;5130688;27;20487;-73
2022/08/10 03:04:12;;;;;;;1999.90;999.90;;;12.90;99.90;;;;;;5095830;27;20071;-73
2022/08/10 03:06:42;;;;;;;1999.90;999.90;;;12.90;99.90;;;;;;5132535;27;20137;-72
2022/08/10 03:09:11;;;;;;;1999.90;999.90;;;12.80;99.90;;;;;;5128118;27;20376;-73
2022/08/10 03:11:39;;;;;;;1999.90;999.90;;;12.80;99.90;;;;;;5129927;27;20039;-73
2022/08/10 03:14:08;;;;;;;1999.90;999.90;;;12.70;99.90;;;;;;5132144;27;20039;-73
2022/08/10 03:16:35;;;;;;;1999.90;999.90;;;12.70;99.90;;;;;;5132258;27;20046;-74
2022/08/10 03:19:03;;;;;;;1999.90;999.90;;;12.70;99.90;;;;;;5111590;27;20039;-74
2022/08/10 03:21:31;;;;;;;1999.90;999.90;;;12.70;99.90;;;;;;5101574;28;20047;-74
2022/08/10 03:24:01;;;;;;;1999.90;999.90;;;12.60;99.90;;;;;;5129415;27;20522;-73
2022/08/10 03:26:31;;;;;;;1999.90;999.90;;;12.60;99.90;;;;;;5120834;27;20092;-74
2022/08/10 03:28:59;;;;;;;1999.90;999.90;;;12.60;99.90;;;;;;5131656;27;20039;-73
2022/08/10 03:31:28;;;;;;;1999.90;999.90;;;12.50;99.90;;;;;;5124896;27;20630;-73
2022/08/10 03:33:54;;;;;;;1999.90;999.90;;;12.50;99.90;;;;;;5113221;27;20127;-73
2022/08/10 03:36:20;;;;;;;1999.90;999.90;;;12.50;99.90;;;;;;5130341;27;20042;-74
2022/08/10 03:38:50;;;;;;;1999.90;999.90;;;12.50;99.90;;;;;;5132241;27;20039;-73
2022/08/10 03:41:28;;;;;;;1999.90;999.90;;;12.60;99.90;;;;;;5112744;27;20047;-73
2022/08/10 03:43:55;;;;;;;1999.90;999.90;;;12.60;99.90;;;;;;5095275;27;20512;-73
2022/08/10 03:46:23;;;;;;;1999.90;999.90;;;12.70;99.90;;;;;;5092936;27;20049;-74
2022/08/10 03:48:52;;;;;;;1999.90;999.90;;;12.80;99.90;;;;;;5113341;27;20039;-74
2022/08/10 03:51:20;;;;;;;1999.90;999.90;;;12.80;99.90;;;;;;5131496;27;20047;-74
2022/08/10 03:53:47;;;;;;;1999.90;999.90;;;12.90;99.90;;;;;;5106647;27;20042;-74
2022/08/10 03:56:13;;;;;;;1999.90;999.90;;;13.00;99.90;;;;;;5112823;27;20058;-74
2022/08/10 03:58:39;;;;;;;1999.90;999.90;;;13.00;99.90;;;;;;5129044;27;20483;-74
2022/08/10 04:01:06;;;;;;;1999.90;999.90;;;13.10;99.90;;;;;;5111184;27;20078;-73
2022/08/10 04:03:32;;;;;;;1999.90;999.90;;;13.10;99.90;;;;;;5124333;27;20123;-73
2022/08/10 04:05:58;;;;;;;1999.90;999.90;;;13.10;99.90;;;;;;5130963;27;20118;-73
2022/08/10 04:08:24;;;;;;;1999.90;999.90;;;13.10;99.90;;;;;;5130981;27;20035;-73
2022/08/10 04:10:49;;;;;;;1999.90;999.90;;;13.10;99.90;;;;;;5103660;27;20908;-73
2022/08/10 04:13:15;;;;;;;1999.90;999.90;;;13.10;99.90;;;;;;5131239;27;20485;-73
2022/08/10 04:15:40;;;;;;;1999.90;999.90;;;13.10;99.90;;;;;;5129117;27;20047;-73
2022/08/10 04:18:06;;;;;;;1999.90;999.90;;;13.10;99.90;;;;;;5112034;27;20411;-73
2022/08/10 04:20:45;;;;;;;1999.90;999.90;;;13.10;99.90;;;;;;5128812;27;20043;-73
2022/08/10 04:23:17;;;;;;;1999.90;999.90;;;13.20;99.90;;;;;;5129447;27;20043;-73
2022/08/10 04:25:43;;;;;;;1999.90;999.90;;;13.20;99.90;;;;;;5129587;27;20031;-73
2022/08/10 04:28:10;;;;;;;1999.90;999.90;;;13.30;99.90;;;;;;5111003;27;20084;-73
2022/08/10 04:30:36;;;;;;;1999.90;999.90;;;13.40;99.90;;;;;;5111688;27;20442;-73
2022/08/10 04:33:04;;;;;;;1999.90;999.90;;;13.40;99.90;;;;;;5131697;27;20109;-73
2022/08/10 04:35:31;;;;;;;1999.90;999.90;;;13.40;99.90;;;;;;5130559;27;20039;-73
2022/08/10 04:37:59;;;;;;;1999.90;999.90;;;13.50;99.90;;;;;;5125672;27;20442;-73
2022/08/10 04:40:26;;;;;;;1999.90;999.90;;;13.50;99.90;;;;;;5130804;27;20495;-73
2022/08/10 04:42:51;;;;;;;1999.90;999.90;;;13.60;99.90;;;;;;5127570;27;20047;-73
2022/08/10 04:45:17;;;;;;;1999.90;999.90;;;13.60;99.90;;;;;;5129648;27;20092;-73
2022/08/10 04:47:42;;;;;;;1999.90;999.90;;;13.70;99.90;;;;;;5130705;27;20035;-73
2022/08/10 04:50:08;;;;;;;1999.90;999.90;;;13.70;99.90;;;;;;5110184;27;20039;-73
2022/08/10 04:52:34;;;;;;;1999.90;999.90;;;13.70;99.90;;;;;;5130177;27;20054;-73
2022/08/10 04:55:00;;;;;;;1999.90;999.90;;;13.70;99.90;;;;;;5130617;27;20039;-73
2022/08/10 04:57:26;;;;;;;1999.90;999.90;;;13.80;99.90;;;;;;5129599;27;20498;-73
2022/08/10 04:59:52;;;;;;;1999.90;999.90;;;13.80;99.90;;;;;;5121396;27;20063;-73
2022/08/10 05:02:17;;;;;;;1999.90;999.90;;;13.80;99.90;;;;;;5129993;27;20043;-74
2022/08/10 05:04:43;;;;;;;1999.90;999.90;;;13.90;99.90;;;;;;5127288;27;20050;-73
2022/08/10 05:07:13;;;;;;;1999.90;999.90;;;13.90;99.90;;;;;;5130749;27;20471;-73
2022/08/10 05:09:39;;;;;;;1999.90;999.90;;;14.00;99.90;;;;;;5129858;27;20039;-73
2022/08/10 05:12:06;;;;;;;1999.90;999.90;;;14.10;99.90;;;;;;5129552;27;20523;-74
2022/08/10 05:14:32;;;;;;;1999.90;999.90;;;14.20;99.90;;;;;;5127914;27;20070;-74
2022/08/10 05:16:58;;;;;;;1999.90;999.90;;;14.30;99.90;;;;;;5111502;27;20133;-74
2022/08/10 05:19:25;;;;;;;1999.90;999.90;;;14.40;99.90;;;;;;5120627;27;20436;-73
2022/08/10 05:21:50;;;;;;;1999.90;999.90;;;14.40;99.90;;;;;;5129158;27;20034;-74
2022/08/10 05:24:16;;;;;;;1999.90;999.90;;;14.50;99.90;;;;;;5107105;27;20416;-73
2022/08/10 05:26:42;;;;;;;1999.90;999.90;;;14.60;99.90;;;;;;5126730;27;20046;-74
2022/08/10 05:29:07;;;;;;;1999.90;999.90;;;14.70;99.90;;;;;;5130957;27;20516;-73
2022/08/10 05:31:33;;;;;;;1999.90;999.90;;;14.80;99.90;;;;;;5142522;27;20035;-74
2022/08/10 05:33:59;;;;;;;1999.90;999.90;;;14.80;99.90;;;;;;5130910;27;20031;-74
2022/08/10 05:36:25;;;;;;;1999.90;999.90;;;14.90;99.90;;;;;;5130624;27;20047;-74
2022/08/10 05:38:51;;;;;;;1999.90;999.90;;;15.00;99.90;;;;;;5139723;27;20035;-73
2022/08/10 05:41:18;;;;;;;1999.90;999.90;;;15.10;99.90;;;;;;5134376;27;20050;-74
2022/08/10 05:43:44;;;;;;;1999.90;999.90;;;15.20;99.90;;;;;;5132363;27;20043;-74
2022/08/10 05:46:10;;;;;;;1999.90;999.90;;;15.50;99.90;;;;;;5125682;27;20038;-74
2022/08/10 05:48:37;;;;;;;1999.90;999.90;;;15.90;99.90;;;;;;5133008;27;20034;-74
2022/08/10 05:51:03;;;;;;;1999.90;999.90;;;16.20;99.90;;;;;;5120937;27;20035;-73
2022/08/10 05:53:31;;;;;;;1999.90;999.90;;;16.40;99.90;;;;;;5095750;27;20039;-73
2022/08/10 05:55:58;;;;;;;1999.90;999.90;;;16.60;99.90;;;;;;5131395;27;20043;-74
2022/08/10 05:58:24;;;;;;;1999.90;999.90;;;16.90;99.90;;;;;;5127677;27;20040;-74
2022/08/10 06:00:54;;;;;;;1999.90;999.90;;;17.00;99.90;;;;;;5127387;27;20042;-74
2022/08/10 06:03:32;;;;;;;1999.90;999.90;;;16.90;99.90;;;;;;5130388;27;20483;-74
2022/08/10 06:06:01;;;;;;;1999.90;999.90;;;16.90;99.90;;;;;;5135153;27;20122;-74
2022/08/10 06:08:31;;;;;;;1999.90;999.90;;;16.90;99.90;;;;;;5133171;27;20043;-73
2022/08/10 06:10:58;;;;;;;1999.90;999.90;;;16.90;99.90;;;;;;5103286;27;20772;-74
2022/08/10 06:16:13;;;;;;;1999.90;999.90;;;16.90;99.90;;;;;;5104616;27;20047;-73
2022/08/10 06:18:40;;;;;;;1999.90;999.90;;;16.90;99.90;;;;;;5129509;27;20031;-74
2022/08/10 06:21:08;;;;;;;1999.90;999.90;;;17.00;99.90;;;;;;5094853;27;20436;-73
2022/08/10 06:23:35;;;;;;;1999.90;999.90;;;17.10;99.90;;;;;;5128575;28;20043;-74
2022/08/10 06:26:01;;;;;;;1999.90;999.90;;;17.10;99.90;;;;;;5127016;27;20039;-74
2022/08/10 06:28:31;;;;;;;1999.90;999.90;;;17.20;99.90;;;;;;5138676;27;20046;-74
2022/08/10 06:30:59;;;;;;;1999.90;999.90;;;17.40;99.90;;;;;;5138741;27;20046;-74
2022/08/10 06:33:29;;;;;;;1999.90;999.90;;;17.60;99.90;;;;;;5139281;27;20066;-74
2022/08/10 06:35:57;;;;;;;1999.90;999.90;;;18.20;99.90;;;;;;5100019;27;20051;-74
2022/08/10 06:38:25;;;;;;;1999.90;999.90;;;18.80;99.90;;;;;;5141320;27;20046;-74
2022/08/10 06:40:55;;;;;;;1999.90;999.90;;;19.10;99.90;;;;;;5107144;27;20384;-74
2022/08/10 06:43:23;;;;;;;1999.90;999.90;;;19.30;99.90;;;;;;5131463;27;20043;-73
2022/08/10 06:46:00;;;;;;;1999.90;999.90;;;19.50;99.90;;;;;;5126649;27;20038;-74
2022/08/10 06:48:34;;;;;;;1999.90;999.90;;;19.50;99.90;;;;;;5104628;27;20562;-74
2022/08/10 06:51:02;;;;;;;1999.90;999.90;;;19.40;99.90;;;;;;5143125;27;20034;-74
2022/08/10 06:53:39;;;;;;;1999.90;999.90;;;19.30;99.90;;;;;;5134046;27;20120;-74
2022/08/10 06:56:14;;;;;;;1999.90;999.90;;;19.30;99.90;;;;;;5144094;27;20047;-74
2022/08/10 06:58:53;;;;;;;1999.90;999.90;;;19.60;99.90;;;;;;5139700;27;20464;-74
2022/08/10 07:01:26;;;;;;;1999.90;999.90;;;20.60;99.90;;;;;;5126821;27;20494;-74
2022/08/10 07:04:00;;;;;;;1999.90;999.90;;;21.50;99.90;;;;;;5122807;27;20049;-74
2022/08/10 07:06:27;;;;;;;1999.90;999.90;;;22.30;99.90;;;;;;5135710;27;20045;-75
2022/08/10 07:08:53;;;;;;;1999.90;999.90;;;22.90;99.90;;;;;;5121927;27;20043;-74
2022/08/10 07:11:20;;;;;;;1999.90;999.90;;;23.60;99.90;;;;;;5139326;27;20030;-74
2022/08/10 07:13:47;;;;;;;1999.90;999.90;;;24.20;99.90;;;;;;5133776;27;20043;-74
2022/08/10 07:16:14;;;;;;;1999.90;999.90;;;24.30;99.90;;;;;;5136878;27;20074;-74
2022/08/10 07:18:43;;;;;;;1999.90;999.90;;;24.30;99.90;;;;;;5111116;27;20038;-75
2022/08/10 07:21:11;;;;;;;1999.90;999.90;;;24.60;99.90;;;;;;5120497;27;20035;-74
2022/08/10 07:23:38;;;;;;;1999.90;999.90;;;24.80;99.90;;;;;;5097077;27;20057;-74
2022/08/10 07:26:06;;;;;;;1999.90;999.90;;;24.40;99.90;;;;;;5125337;27;20375;-74
2022/08/10 07:28:32;;;;;;;1999.90;999.90;;;23.60;99.90;;;;;;5132497;27;20082;-75
2022/08/10 07:30:59;;;;;;;1999.90;999.90;;;22.70;99.90;;;;;;5132331;27;20035;-74
2022/08/10 07:33:27;;;;;;;1999.90;999.90;;;22.10;99.90;;;;;;5109568;28;20082;-74
2022/08/10 07:35:55;;;;;;;1999.90;999.90;;;21.80;99.90;;;;;;5111061;27;20470;-74
2022/08/10 07:38:27;;;;;;;1999.90;999.90;;;21.60;99.90;;;;;;5132142;27;20043;-74
2022/08/10 07:40:53;;;;;;;1999.90;999.90;;;21.60;99.90;;;;;;5109846;27;20063;-74
2022/08/10 07:43:25;;;;;;;1999.90;999.90;;;21.70;99.90;;;;;;5110321;28;20074;-74
2022/08/10 07:45:52;;;;;;;1999.90;999.90;;;21.60;99.90;;;;;;5111686;28;20040;-75
2022/08/10 07:48:32;;;;;;;1999.90;999.90;;;21.40;99.90;;;;;;5112694;27;20292;-74
2022/08/10 07:51:00;;;;;;;1999.90;999.90;;;21.30;99.90;;;;;;5107196;27;20074;-75
2022/08/10 07:53:31;;;;;;;1999.90;999.90;;;21.30;99.90;;;;;;5107479;28;20083;-75
2022/08/10 07:55:59;;;;;;;1999.90;999.90;;;21.30;99.90;;;;;;5111483;28;20139;-75
2022/08/10 07:58:30;;;;;;;1999.90;999.90;;;21.30;99.90;;;;;;5110330;28;20448;-74
2022/08/10 08:00:57;;;;;;;1999.90;999.90;;;21.30;99.90;;;;;;5100024;28;20406;-74
2022/08/10 08:03:27;;;;;;;1999.90;999.90;;;21.30;99.90;;;;;;5110758;28;20035;-75
2022/08/10 08:05:54;;;;;;;1999.90;999.90;;;21.30;99.90;;;;;;5099305;28;20050;-75
2022/08/10 08:08:21;;;;;;;1999.90;999.90;;;21.30;99.90;;;;;;5107872;28;20086;-75
2022/08/10 08:10:47;;;;;;;1999.90;999.90;;;21.30;99.90;;;;;;5112694;27;20043;-74
2022/08/10 08:13:15;;;;;;;1999.90;999.90;;;21.30;99.90;;;;;;5109938;28;20393;-75
2022/08/10 08:15:42;;;;;;;1999.90;999.90;;;21.20;99.90;;;;;;5111423;28;20460;-74
2022/08/10 08:18:09;;;;;;;1999.90;999.90;;;21.20;99.90;;;;;;5111061;28;20474;-74
2022/08/10 08:20:35;;;;;;;1999.90;999.90;;;21.20;99.90;;;;;;5103150;27;20061;-75
2022/08/10 08:23:03;;;;;;;1999.90;999.90;;;21.20;99.90;;;;;;5104501;28;20040;-74
2022/08/10 08:25:30;;;;;;;1999.90;999.90;;;21.30;99.90;;;;;;5104977;28;20047;-74
2022/08/10 08:27:56;;;;;;;1999.90;999.90;;;21.40;99.90;;;;;;5106947;28;20500;-74
2022/08/10 08:30:23;;;;;;;1999.90;999.90;;;21.50;99.90;;;;;;5104445;27;20127;-74
2022/08/10 08:33:02;;;;;;;1999.90;999.90;;;21.60;99.90;;;;;;5109228;27;20547;-75
2022/08/10 08:35:31;;;;;;;1999.90;999.90;;;21.70;99.90;;;;;;5111220;28;20040;-75
2022/08/10 08:37:58;;;;;;;1999.90;999.90;;;21.70;99.90;;;;;;5092223;28;20131;-74
2022/08/10 08:40:32;;;;;;;1999.90;999.90;;;21.80;99.90;;;;;;5118619;27;20443;-74
2022/08/10 08:43:11;;;;;;;1999.90;999.90;;;21.80;99.90;;;;;;5130662;27;20051;-75
2022/08/10 08:46:05;;;;;;;1999.90;999.90;;;21.90;99.90;;;;;;5066230;28;20578;-75
2022/08/10 08:48:52;;;;;;;1999.90;999.90;;;22.10;99.90;;;;;;5112582;27;20560;-74
2022/08/10 08:51:38;;;;;;;1999.90;999.90;;;22.60;99.90;;;;;;5129115;27;20043;-75
2022/08/10 08:54:21;;;;;;;1999.90;999.90;;;23.30;99.90;;;;;;5112524;27;20059;-75
2022/08/10 08:57:08;;;;;;;1999.90;999.90;;;24.50;99.90;;;;;;5098393;27;20516;-74
2022/08/10 09:00:01;;;;;;;1999.90;999.90;;;25.40;99.90;;;;;;5126836;27;20390;-74
2022/08/10 09:02:43;;;;;;;1999.90;999.90;;;26.40;99.90;;;;;;5130539;27;20031;-75
2022/08/10 09:05:33;;;;;;;1999.90;999.90;;;26.90;99.60;;;;;;5116135;27;20041;-75
2022/08/10 09:08:17;;;;;;;1999.90;999.90;;;27.40;99.90;;;;;;5130926;27;20043;-75
2022/08/10 09:10:56;;;;;;;1999.90;999.90;;;27.80;97.60;;;;;;5130569;27;20039;-75
2022/08/10 09:13:46;;;;;;;1999.90;999.90;;;28.30;96.50;;;;;;5128325;27;20039;-75
2022/08/10 09:16:34;;;;;;;1999.90;999.90;;;28.70;95.40;;;;;;5130703;27;20086;-75
2022/08/10 09:19:06;;;;;;;1999.90;999.90;;;28.80;93.80;;;;;;5107535;28;20096;-75
2022/08/10 09:21:44;;;;;;;1999.90;999.90;;;28.70;92.50;;;;;;5113092;27;20479;-75
2022/08/10 09:24:24;;;;;;;1999.90;999.90;;;28.70;91.90;;;;;;5128730;27;20479;-75
2022/08/10 09:26:51;;;;;;;1999.90;999.90;;;29.00;93.70;;;;;;5130416;27;20039;-75
2022/08/10 09:29:29;;;;;;;1999.90;999.90;;;29.10;93.20;;;;;;5120055;27;20023;-75
2022/08/10 09:32:16;;;;;;;1999.90;999.90;;;29.50;92.10;;;;;;5130670;27;20043;-74
2022/08/10 09:35:13;;;;;;;1999.90;999.90;;;29.90;87.80;;;;;;5125840;27;20031;-75
2022/08/10 09:38:03;;;;;;;1999.90;999.90;;;30.10;89.30;;;;;;5128021;27;20076;-75
2022/08/10 09:40:53;;;;;;;1999.90;999.90;;;30.30;85.80;;;;;;5111248;27;20111;-75
2022/08/10 09:43:46;;;;;;;1999.90;999.90;;;30.60;84.50;;;;;;5114556;27;20036;-75
2022/08/10 09:46:46;;;;;;;1999.90;999.90;;;30.70;83.80;;;;;;5121722;27;20050;-75
2022/08/10 09:49:42;;;;;;;1999.90;999.90;;;30.70;81.80;;;;;;5129703;27;20067;-75
2022/08/10 09:52:20;;;;;;;1999.90;999.90;;;30.70;81.70;;;;;;5130038;27;20039;-74
2022/08/10 09:55:10;;;;;;;1999.90;999.90;;;30.70;77.60;;;;;;5128078;27;20487;-75
2022/08/10 09:58:07;;;;;;;1999.90;999.90;;;30.50;80.50;;;;;;5130325;27;20050;-75
2022/08/10 10:00:43;;;;;;;1999.90;999.90;;;30.20;72.50;;;;;;5118849;27;20043;-74
2022/08/10 10:03:22;;;;;;;1999.90;999.90;;;29.70;77.00;;;;;;5127339;27;20035;-75
2022/08/10 10:06:32;;;;;;;1999.90;999.90;;;29.70;80.10;;;;;;5129542;27;20531;-75
2022/08/10 10:09:14;;;;;;;1999.90;999.90;;;29.60;78.20;;;;;;5065989;28;20071;-75
2022/08/10 10:11:48;;;;;;;1999.90;999.90;;;29.70;79.30;;;;;;5061333;28;20044;-74
2022/08/10 10:15:19;;;;;;;1999.90;999.90;;;29.80;78.30;;;;;;5049034;28;20101;-74
2022/08/10 10:18:04;;;;;;;1999.90;999.90;;;29.70;76.20;;;;;;5054677;28;20052;-74
2022/08/10 10:20:46;;;;;;;1999.90;999.90;;;29.60;73.40;;;;;;5065066;28;20049;-75
2022/08/10 10:23:30;;;;;;;;;;;29.40;72.10;;;;;;5040516;28;20070;-75
2022/08/10 10:26:12;;;;;;;1999.90;999.90;;;29.20;73.60;;;;;;5048079;28;20370;-75
2022/08/10 10:29:28;;;;;;;1999.90;999.90;;;29.10;72.60;;;;;;5059634;28;20040;-74
2022/08/10 10:32:20;;;;;;;1999.90;999.90;;;29.10;75.00;;;;;;5002779;28;20089;-73
2022/08/10 10:35:01;;;;;;;1999.90;999.90;;;29.10;73.80;;;;;;5001600;28;20052;-74
2022/08/10 10:37:28;;;;;;;1999.90;999.90;;;28.80;72.80;;;;;;5005389;28;20050;-74
2022/08/10 10:39:55;;;;;;;1999.90;999.90;;;28.80;72.90;;;;;;5016537;28;20509;-74
2022/08/10 10:42:39;;;;;;;1999.90;999.90;;;28.80;70.30;;;;;;5021352;28;20450;-74
2022/08/10 10:45:42;;;;;;;1999.90;999.90;;;28.70;69.60;;;;;;5011316;28;20049;-74
2022/08/10 10:48:18;;;;;;;1999.90;999.90;;;28.60;72.90;;;;;;5021225;28;20053;-74
2022/08/10 10:51:11;;;;;;;1999.90;999.90;;;28.80;72.40;;;;;;5007919;28;20545;-74
2022/08/10 10:54:04;;;;;;;1999.90;999.90;;;28.60;69.90;;;;;;5021890;28;20041;-75
2022/08/10 10:57:00;;;;;;;1999.90;999.90;;;28.40;72.00;;;;;;5021996;28;20033;-74
2022/08/10 10:59:31;;;;;;;1999.90;999.90;;;28.40;70.30;;;;;;5016372;28;20033;-75
2022/08/10 11:02:26;;;;;;;1999.90;999.90;;;28.40;72.10;;;;;;5022143;28;20057;-74
2022/08/10 11:05:18;;;;;;;1999.90;999.90;;;28.50;72.20;;;;;;5003573;28;20066;-74
2022/08/10 11:08:06;;;;;;;1999.90;999.90;;;28.70;71.80;;;;;;5026133;28;20051;-74
2022/08/10 11:11:01;;;;;;;1999.90;999.90;;;28.80;69.90;;;;;;5113764;28;20066;-74
2022/08/10 11:13:50;;;;;;;1999.90;999.90;;;28.90;70.70;;;;;;5064302;28;20471;-74
2022/08/10 11:16:37;;;;;;;1999.90;999.90;;;28.90;70.80;;;;;;5059793;28;20399;-74
2022/08/10 11:19:16;;;;;;;1999.90;999.90;;;29.20;70.20;;;;;;5060308;28;20424;-74
2022/08/10 11:22:11;;;;;;;1999.90;999.90;;;29.30;68.60;;;;;;5064711;28;20051;-74
2022/08/10 11:24:41;;;;;;;1999.90;999.90;;;29.30;66.90;;;;;;5036136;28;20044;-74
2022/08/10 11:27:32;;;;;;;1999.90;999.90;;;29.50;70.70;;;;;;5061360;28;20127;-74
2022/08/10 11:30:12;;;;;;;1999.90;999.90;;;29.60;68.80;;;;;;5044514;28;20072;-74
2022/08/10 11:32:44;;;;;;;1999.90;999.90;;;29.70;66.50;;;;;;5065067;28;20534;-74
2022/08/10 11:35:24;;;;;;;1999.90;999.90;;;29.50;64.40;;;;;;5057794;28;20045;-74
2022/08/10 11:37:58;;;;;;;1999.90;999.90;;;29.50;66.40;;;;;;5047993;28;20045;-74
2022/08/10 11:40:30;;;;;;;1999.90;999.90;;;29.50;63.50;;;;;;5060990;28;20056;-74
2022/08/10 11:43:13;;;;;;;1999.90;999.90;;;29.50;65.10;;;;;;5068261;28;20957;-74
2022/08/10 11:45:46;;;;;;;1999.90;999.90;;;29.50;62.90;;;;;;5068574;28;20099;-74
2022/08/10 11:48:39;;;;;;;1999.90;999.90;;;29.60;63.90;;;;;;5067521;28;20051;-73
2022/08/10 11:51:17;;;;;;;1999.90;999.90;;;29.80;63.90;;;;;;5121114;27;20061;-74
2022/08/10 11:53:59;;;;;;;1999.90;999.90;;;29.70;60.50;;;;;;5132560;27;20039;-74
2022/08/10 11:56:37;;;;;;;1999.90;999.90;;;29.70;63.40;;;;;;5129949;27;20095;-74
2022/08/10 12:01:49;;;;;;;1999.90;999.90;;;29.80;62.70;;;;;;5125558;27;20413;-74
2022/08/10 12:04:16;;;;;;;1999.90;999.90;;;29.90;63.90;;;;;;5131888;27;20042;-74
2022/08/10 12:06:44;;;;;;;1999.90;999.90;;;30.20;63.20;;;;;;5131963;27;20058;-74
2022/08/10 12:09:11;;;;;;;1999.90;999.90;;;30.30;62.00;;;;;;5096604;27;20122;-74
2022/08/10 12:11:37;;;;;;;1999.90;999.90;;;30.30;60.60;;;;;;5129778;27;20035;-74
2022/08/10 12:14:13;;;;;;;1999.90;999.90;;;30.20;62.40;;;;;;5131833;27;20555;-74
2022/08/10 12:16:46;;;;;;;1999.90;999.90;;;30.10;61.80;;;;;;5109111;27;20047;-74
2022/08/10 12:19:40;;;;;;;1999.90;999.90;;;30.10;60.80;;;;;;5107414;28;20069;-74
2022/08/10 12:22:10;;;;;;;1999.90;999.90;;;30.00;60.50;;;;;;5091045;27;20039;-74
2022/08/10 12:25:01;;;;;;;1999.90;999.90;;;30.10;59.60;;;;;;5107464;28;20044;-74
2022/08/10 12:27:47;;;;;;;1999.90;999.90;;;29.90;61.50;;;;;;5111874;27;20050;-74
2022/08/10 12:30:18;;;;;;;1999.90;999.90;;;29.90;61.50;;;;;;5131572;27;20111;-74
2022/08/10 12:32:50;;;;;;;1999.90;999.90;;;30.10;62.60;;;;;;5131358;27;20050;-74
2022/08/10 12:35:24;;;;;;;1999.90;999.90;;;30.20;60.40;;;;;;5123304;27;20035;-74
2022/08/10 12:38:01;;;;;;;1999.90;999.90;;;30.20;59.60;;;;;;5125129;27;20486;-74
2022/08/10 12:40:30;;;;;;;1999.90;999.90;;;30.00;60.70;;;;;;5124244;27;20121;-74